OLA weather

Public forecast

Using degrees Celsius for public forecast. Weather courtesy of forecast.io.

Current aviation weather report (METAR) for Ørland Airport

Retrieved 2020/08/15 15:50 UTC (50 minutes ago):

ENOL 151550Z 25009KT 4500 -DZ BR SCT005 BKN008 15/15 Q1016 TEMPO 2000 DZRA BKN004

Aviation forecast (TAF) for Ørland Airport

Retrieved 2020/08/15 12:57 UTC (4 hours ago):

TAF ENOL 151100Z 1512/1612 25015KT 9999 -RADZ SCT007 BKN012 TEMPO 1512/1603 2000 DZRA BR BKN004 BECMG 1601/1604 32008KT